sensor_id;sensor_type;location;lat;lon;timestamp;P1;durP1;ratioP1;P2;durP2;ratioP2
82640;SDS011;72322;41.918;22.414;2023-09-08T00:00:58;5.93;;;4.43;;
82640;SDS011;72322;41.918;22.414;2023-09-08T00:03:24;6.93;;;4.68;;
82640;SDS011;72322;41.918;22.414;2023-09-08T00:05:50;7.75;;;4.75;;
82640;SDS011;72322;41.918;22.414;2023-09-08T00:08:16;7.63;;;4.30;;
82640;SDS011;72322;41.918;22.414;2023-09-08T00:10:42;4.90;;;4.10;;
82640;SDS011;72322;41.918;22.414;2023-09-08T00:13:08;5.60;;;4.75;;
82640;SDS011;72322;41.918;22.414;2023-09-08T00:15:34;6.03;;;4.30;;
82640;SDS011;72322;41.918;22.414;2023-09-08T00:18:00;5.18;;;4.28;;
82640;SDS011;72322;41.918;22.414;2023-09-08T00:20:26;6.47;;;4.55;;
82640;SDS011;72322;41.918;22.414;2023-09-08T00:22:53;5.40;;;4.22;;
82640;SDS011;72322;41.918;22.414;2023-09-08T00:25:19;7.50;;;4.53;;
82640;SDS011;72322;41.918;22.414;2023-09-08T00:27:45;6.45;;;4.35;;
82640;SDS011;72322;41.918;22.414;2023-09-08T00:30:11;7.72;;;4.97;;
82640;SDS011;72322;41.918;22.414;2023-09-08T00:32:37;8.80;;;4.65;;
82640;SDS011;72322;41.918;22.414;2023-09-08T00:35:05;5.50;;;4.22;;
82640;SDS011;72322;41.918;22.414;2023-09-08T00:37:33;5.70;;;4.22;;
82640;SDS011;72322;41.918;22.414;2023-09-08T00:39:59;5.90;;;4.63;;
82640;SDS011;72322;41.918;22.414;2023-09-08T00:42:26;5.70;;;4.75;;
82640;SDS011;72322;41.918;22.414;2023-09-08T00:44:52;6.63;;;4.45;;
82640;SDS011;72322;41.918;22.414;2023-09-08T00:47:18;7.30;;;4.95;;
82640;SDS011;72322;41.918;22.414;2023-09-08T00:49:44;4.97;;;4.47;;
82640;SDS011;72322;41.918;22.414;2023-09-08T00:52:11;6.82;;;4.45;;
82640;SDS011;72322;41.918;22.414;2023-09-08T00:54:37;6.40;;;4.60;;
82640;SDS011;72322;41.918;22.414;2023-09-08T00:57:03;5.40;;;4.15;;
82640;SDS011;72322;41.918;22.414;2023-09-08T00:59:31;7.22;;;4.53;;
82640;SDS011;72322;41.918;22.414;2023-09-08T01:01:57;6.70;;;4.50;;
82640;SDS011;72322;41.918;22.414;2023-09-08T01:04:24;5.45;;;4.30;;
82640;SDS011;72322;41.918;22.414;2023-09-08T01:06:50;9.05;;;5.00;;
82640;SDS011;72322;41.918;22.414;2023-09-08T01:09:16;8.40;;;4.32;;
82640;SDS011;72322;41.918;22.414;2023-09-08T01:11:43;5.68;;;4.57;;
82640;SDS011;72322;41.918;22.414;2023-09-08T01:14:11;5.55;;;4.57;;
82640;SDS011;72322;41.918;22.414;2023-09-08T01:16:38;7.25;;;4.53;;
82640;SDS011;72322;41.918;22.414;2023-09-08T01:19:06;6.28;;;4.68;;
82640;SDS011;72322;41.918;22.414;2023-09-08T01:26:35;6.53;;;4.97;;
82640;SDS011;72322;41.918;22.414;2023-09-08T01:29:02;5.35;;;4.72;;
82640;SDS011;72322;41.918;22.414;2023-09-08T01:31:29;5.20;;;4.20;;
82640;SDS011;72322;41.918;22.414;2023-09-08T01:33:56;6.80;;;4.45;;
82640;SDS011;72322;41.918;22.414;2023-09-08T01:36:22;7.95;;;4.97;;
82640;SDS011;72322;41.918;22.414;2023-09-08T01:38:48;5.72;;;4.85;;
82640;SDS011;72322;41.918;22.414;2023-09-08T01:41:14;5.18;;;4.60;;
82640;SDS011;72322;41.918;22.414;2023-09-08T01:43:40;6.38;;;4.90;;
82640;SDS011;72322;41.918;22.414;2023-09-08T01:46:06;7.30;;;5.03;;
82640;SDS011;72322;41.918;22.414;2023-09-08T01:48:32;6.85;;;4.20;;
82640;SDS011;72322;41.918;22.414;2023-09-08T01:50:58;6.40;;;4.35;;
82640;SDS011;72322;41.918;22.414;2023-09-08T01:53:24;6.10;;;4.53;;
82640;SDS011;72322;41.918;22.414;2023-09-08T01:55:50;8.15;;;4.50;;
82640;SDS011;72322;41.918;22.414;2023-09-08T01:58:16;5.18;;;4.50;;
82640;SDS011;72322;41.918;22.414;2023-09-08T02:00:42;7.53;;;4.63;;
82640;SDS011;72322;41.918;22.414;2023-09-08T02:03:08;7.97;;;5.43;;
82640;SDS011;72322;41.918;22.414;2023-09-08T02:05:34;5.13;;;4.57;;
82640;SDS011;72322;41.918;22.414;2023-09-08T02:08:04;8.73;;;5.13;;
82640;SDS011;72322;41.918;22.414;2023-09-08T02:10:30;6.45;;;5.03;;
82640;SDS011;72322;41.918;22.414;2023-09-08T02:12:56;5.72;;;5.13;;
82640;SDS011;72322;41.918;22.414;2023-09-08T02:15:23;6.93;;;4.45;;
82640;SDS011;72322;41.918;22.414;2023-09-08T02:17:52;6.63;;;4.28;;
82640;SDS011;72322;41.918;22.414;2023-09-08T02:20:20;8.57;;;4.97;;
82640;SDS011;72322;41.918;22.414;2023-09-08T02:22:46;6.60;;;4.68;;
82640;SDS011;72322;41.918;22.414;2023-09-08T02:25:15;6.05;;;4.90;;
82640;SDS011;72322;41.918;22.414;2023-09-08T02:27:42;6.68;;;4.65;;
82640;SDS011;72322;41.918;22.414;2023-09-08T02:30:08;6.97;;;4.70;;
82640;SDS011;72322;41.918;22.414;2023-09-08T02:32:34;7.00;;;5.25;;
82640;SDS011;72322;41.918;22.414;2023-09-08T02:35:00;5.55;;;4.10;;
82640;SDS011;72322;41.918;22.414;2023-09-08T02:37:26;6.45;;;4.38;;
82640;SDS011;72322;41.918;22.414;2023-09-08T02:39:52;5.07;;;4.35;;
82640;SDS011;72322;41.918;22.414;2023-09-08T02:42:18;6.82;;;5.00;;
82640;SDS011;72322;41.918;22.414;2023-09-08T02:44:44;5.60;;;4.28;;
82640;SDS011;72322;41.918;22.414;2023-09-08T02:47:11;7.25;;;4.57;;
82640;SDS011;72322;41.918;22.414;2023-09-08T02:49:37;6.07;;;4.45;;
82640;SDS011;72322;41.918;22.414;2023-09-08T02:52:03;8.10;;;4.93;;
82640;SDS011;72322;41.918;22.414;2023-09-08T02:54:29;5.72;;;4.38;;
82640;SDS011;72322;41.918;22.414;2023-09-08T02:56:55;8.23;;;5.25;;
82640;SDS011;72322;41.918;22.414;2023-09-08T02:59:21;6.90;;;4.60;;
82640;SDS011;72322;41.918;22.414;2023-09-08T03:01:47;6.40;;;4.47;;
82640;SDS011;72322;41.918;22.414;2023-09-08T03:04:13;6.53;;;4.95;;
82640;SDS011;72322;41.918;22.414;2023-09-08T03:06:39;9.20;;;5.00;;
82640;SDS011;72322;41.918;22.414;2023-09-08T03:09:05;5.72;;;4.32;;
82640;SDS011;72322;41.918;22.414;2023-09-08T03:11:31;7.03;;;4.80;;
82640;SDS011;72322;41.918;22.414;2023-09-08T03:13:57;5.93;;;4.45;;
82640;SDS011;72322;41.918;22.414;2023-09-08T03:16:24;7.00;;;4.45;;
82640;SDS011;72322;41.918;22.414;2023-09-08T03:18:50;6.75;;;5.00;;
82640;SDS011;72322;41.918;22.414;2023-09-08T03:21:16;7.72;;;5.25;;
82640;SDS011;72322;41.918;22.414;2023-09-08T03:23:42;7.10;;;4.82;;
82640;SDS011;72322;41.918;22.414;2023-09-08T03:26:09;6.63;;;5.07;;
82640;SDS011;72322;41.918;22.414;2023-09-08T03:28:35;7.10;;;5.32;;
82640;SDS011;72322;41.918;22.414;2023-09-08T03:31:02;9.73;;;4.68;;
82640;SDS011;72322;41.918;22.414;2023-09-08T03:33:28;6.57;;;4.93;;
82640;SDS011;72322;41.918;22.414;2023-09-08T03:35:54;7.25;;;4.72;;
82640;SDS011;72322;41.918;22.414;2023-09-08T03:38:20;6.22;;;4.72;;
82640;SDS011;72322;41.918;22.414;2023-09-08T03:40:46;5.15;;;4.38;;
82640;SDS011;72322;41.918;22.414;2023-09-08T03:43:13;9.48;;;5.18;;
82640;SDS011;72322;41.918;22.414;2023-09-08T03:45:39;8.13;;;4.53;;
82640;SDS011;72322;41.918;22.414;2023-09-08T03:48:05;6.78;;;4.97;;
82640;SDS011;72322;41.918;22.414;2023-09-08T03:50:31;8.15;;;4.63;;
82640;SDS011;72322;41.918;22.414;2023-09-08T03:52:57;6.88;;;5.13;;
82640;SDS011;72322;41.918;22.414;2023-09-08T03:55:23;7.95;;;4.75;;
82640;SDS011;72322;41.918;22.414;2023-09-08T03:57:50;5.70;;;4.80;;
82640;SDS011;72322;41.918;22.414;2023-09-08T04:00:16;7.20;;;4.80;;
82640;SDS011;72322;41.918;22.414;2023-09-08T04:02:47;8.35;;;5.25;;
82640;SDS011;72322;41.918;22.414;2023-09-08T04:05:14;6.40;;;4.93;;
82640;SDS011;72322;41.918;22.414;2023-09-08T04:07:40;6.40;;;5.13;;
82640;SDS011;72322;41.918;22.414;2023-09-08T04:10:06;9.32;;;4.88;;
82640;SDS011;72322;41.918;22.414;2023-09-08T04:12:32;6.32;;;4.90;;
82640;SDS011;72322;41.918;22.414;2023-09-08T04:14:58;6.32;;;4.82;;
82640;SDS011;72322;41.918;22.414;2023-09-08T04:17:24;5.70;;;4.63;;
82640;SDS011;72322;41.918;22.414;2023-09-08T04:19:50;8.32;;;5.43;;
82640;SDS011;72322;41.918;22.414;2023-09-08T04:22:16;8.35;;;5.82;;
82640;SDS011;72322;41.918;22.414;2023-09-08T04:24:42;7.88;;;5.75;;
82640;SDS011;72322;41.918;22.414;2023-09-08T04:27:08;8.52;;;6.18;;
82640;SDS011;72322;41.918;22.414;2023-09-08T04:29:35;7.68;;;5.78;;
82640;SDS011;72322;41.918;22.414;2023-09-08T04:32:01;8.23;;;5.13;;
82640;SDS011;72322;41.918;22.414;2023-09-08T04:34:37;9.75;;;5.85;;
82640;SDS011;72322;41.918;22.414;2023-09-08T04:37:03;8.88;;;6.15;;
82640;SDS011;72322;41.918;22.414;2023-09-08T04:39:29;8.63;;;5.65;;
82640;SDS011;72322;41.918;22.414;2023-09-08T04:41:55;6.57;;;5.78;;
82640;SDS011;72322;41.918;22.414;2023-09-08T04:44:21;7.10;;;5.72;;
82640;SDS011;72322;41.918;22.414;2023-09-08T04:46:47;8.88;;;5.90;;
82640;SDS011;72322;41.918;22.414;2023-09-08T04:49:14;9.18;;;6.30;;
82640;SDS011;72322;41.918;22.414;2023-09-08T04:51:40;8.23;;;6.15;;
82640;SDS011;72322;41.918;22.414;2023-09-08T04:54:06;10.10;;;6.32;;
82640;SDS011;72322;41.918;22.414;2023-09-08T04:56:32;9.00;;;6.18;;
82640;SDS011;72322;41.918;22.414;2023-09-08T04:58:58;6.90;;;5.10;;
82640;SDS011;72322;41.918;22.414;2023-09-08T05:01:26;10.35;;;6.93;;
82640;SDS011;72322;41.918;22.414;2023-09-08T05:03:52;11.70;;;6.28;;
82640;SDS011;72322;41.918;22.414;2023-09-08T05:06:18;9.65;;;6.35;;
82640;SDS011;72322;41.918;22.414;2023-09-08T05:08:44;8.60;;;6.28;;
82640;SDS011;72322;41.918;22.414;2023-09-08T05:11:10;9.80;;;6.35;;
82640;SDS011;72322;41.918;22.414;2023-09-08T05:13:36;10.85;;;5.68;;
82640;SDS011;72322;41.918;22.414;2023-09-08T05:16:02;7.20;;;6.18;;
82640;SDS011;72322;41.918;22.414;2023-09-08T05:18:39;9.68;;;5.65;;
82640;SDS011;72322;41.918;22.414;2023-09-08T05:21:05;8.77;;;5.97;;
82640;SDS011;72322;41.918;22.414;2023-09-08T05:23:32;7.25;;;6.03;;
82640;SDS011;72322;41.918;22.414;2023-09-08T05:25:58;11.27;;;5.72;;
82640;SDS011;72322;41.918;22.414;2023-09-08T05:28:24;9.23;;;6.35;;
82640;SDS011;72322;41.918;22.414;2023-09-08T05:30:50;8.82;;;5.43;;
82640;SDS011;72322;41.918;22.414;2023-09-08T05:33:16;9.43;;;6.45;;
82640;SDS011;72322;41.918;22.414;2023-09-08T05:35:43;10.60;;;7.32;;
82640;SDS011;72322;41.918;22.414;2023-09-08T05:38:10;9.07;;;6.20;;
82640;SDS011;72322;41.918;22.414;2023-09-08T05:40:36;8.60;;;6.07;;
82640;SDS011;72322;41.918;22.414;2023-09-08T05:43:02;10.68;;;4.80;;
82640;SDS011;72322;41.918;22.414;2023-09-08T05:45:28;6.40;;;4.80;;
82640;SDS011;72322;41.918;22.414;2023-09-08T05:47:56;6.82;;;4.93;;
82640;SDS011;72322;41.918;22.414;2023-09-08T05:50:22;5.97;;;4.13;;
82640;SDS011;72322;41.918;22.414;2023-09-08T05:52:48;6.88;;;3.83;;
82640;SDS011;72322;41.918;22.414;2023-09-08T05:55:14;6.75;;;3.95;;
82640;SDS011;72322;41.918;22.414;2023-09-08T05:57:40;5.68;;;3.95;;
82640;SDS011;72322;41.918;22.414;2023-09-08T06:00:06;7.65;;;4.45;;
82640;SDS011;72322;41.918;22.414;2023-09-08T06:02:33;6.05;;;3.67;;
82640;SDS011;72322;41.918;22.414;2023-09-08T06:04:59;5.47;;;3.90;;
82640;SDS011;72322;41.918;22.414;2023-09-08T06:07:25;7.97;;;3.63;;
82640;SDS011;72322;41.918;22.414;2023-09-08T06:09:51;8.55;;;3.92;;
82640;SDS011;72322;41.918;22.414;2023-09-08T06:12:17;5.68;;;3.95;;
82640;SDS011;72322;41.918;22.414;2023-09-08T06:14:43;7.63;;;4.38;;
82640;SDS011;72322;41.918;22.414;2023-09-08T06:17:09;8.25;;;3.92;;
82640;SDS011;72322;41.918;22.414;2023-09-08T06:19:35;4.55;;;4.10;;
82640;SDS011;72322;41.918;22.414;2023-09-08T06:22:02;7.97;;;4.10;;
82640;SDS011;72322;41.918;22.414;2023-09-08T06:24:28;6.75;;;4.13;;
82640;SDS011;72322;41.918;22.414;2023-09-08T06:26:54;6.22;;;4.20;;
82640;SDS011;72322;41.918;22.414;2023-09-08T06:29:20;7.10;;;3.75;;
82640;SDS011;72322;41.918;22.414;2023-09-08T06:31:46;5.97;;;4.05;;
82640;SDS011;72322;41.918;22.414;2023-09-08T06:34:12;5.40;;;3.72;;
82640;SDS011;72322;41.918;22.414;2023-09-08T06:36:38;9.43;;;4.35;;
82640;SDS011;72322;41.918;22.414;2023-09-08T06:39:04;6.38;;;4.10;;
82640;SDS011;72322;41.918;22.414;2023-09-08T06:41:30;6.57;;;4.10;;
82640;SDS011;72322;41.918;22.414;2023-09-08T06:43:56;8.50;;;3.97;;
82640;SDS011;72322;41.918;22.414;2023-09-08T06:46:22;5.85;;;4.05;;
82640;SDS011;72322;41.918;22.414;2023-09-08T06:48:48;7.22;;;4.43;;
82640;SDS011;72322;41.918;22.414;2023-09-08T06:51:14;7.85;;;4.68;;
82640;SDS011;72322;41.918;22.414;2023-09-08T06:53:42;7.47;;;4.40;;
82640;SDS011;72322;41.918;22.414;2023-09-08T06:56:08;10.50;;;6.25;;
82640;SDS011;72322;41.918;22.414;2023-09-08T06:58:34;9.50;;;5.45;;
82640;SDS011;72322;41.918;22.414;2023-09-08T07:01:00;5.05;;;3.92;;
82640;SDS011;72322;41.918;22.414;2023-09-08T07:03:26;8.20;;;4.43;;
82640;SDS011;72322;41.918;22.414;2023-09-08T07:05:52;10.85;;;5.43;;
82640;SDS011;72322;41.918;22.414;2023-09-08T07:08:18;9.45;;;5.20;;
82640;SDS011;72322;41.918;22.414;2023-09-08T07:10:45;6.50;;;4.85;;
82640;SDS011;72322;41.918;22.414;2023-09-08T07:13:11;8.85;;;4.60;;
82640;SDS011;72322;41.918;22.414;2023-09-08T07:15:37;7.25;;;4.28;;
82640;SDS011;72322;41.918;22.414;2023-09-08T07:18:03;11.90;;;4.53;;
82640;SDS011;72322;41.918;22.414;2023-09-08T07:20:29;6.45;;;4.65;;
82640;SDS011;72322;41.918;22.414;2023-09-08T07:22:55;5.80;;;4.68;;
82640;SDS011;72322;41.918;22.414;2023-09-08T07:25:21;8.25;;;5.60;;
82640;SDS011;72322;41.918;22.414;2023-09-08T07:27:48;7.28;;;4.32;;
82640;SDS011;72322;41.918;22.414;2023-09-08T07:30:17;7.28;;;4.82;;
82640;SDS011;72322;41.918;22.414;2023-09-08T07:32:43;7.45;;;4.97;;
82640;SDS011;72322;41.918;22.414;2023-09-08T07:35:09;11.88;;;7.22;;
82640;SDS011;72322;41.918;22.414;2023-09-08T07:37:39;13.25;;;6.90;;
82640;SDS011;72322;41.918;22.414;2023-09-08T07:40:06;8.90;;;5.78;;
82640;SDS011;72322;41.918;22.414;2023-09-08T07:42:32;7.10;;;4.50;;
82640;SDS011;72322;41.918;22.414;2023-09-08T07:44:58;6.20;;;4.95;;
82640;SDS011;72322;41.918;22.414;2023-09-08T07:47:24;6.25;;;4.85;;
82640;SDS011;72322;41.918;22.414;2023-09-08T07:49:50;8.25;;;4.45;;
82640;SDS011;72322;41.918;22.414;2023-09-08T07:52:16;6.63;;;4.70;;
82640;SDS011;72322;41.918;22.414;2023-09-08T07:54:42;5.95;;;4.03;;
82640;SDS011;72322;41.918;22.414;2023-09-08T07:57:08;6.75;;;3.90;;
82640;SDS011;72322;41.918;22.414;2023-09-08T07:59:35;7.13;;;4.32;;
82640;SDS011;72322;41.918;22.414;2023-09-08T08:02:01;7.20;;;3.95;;
82640;SDS011;72322;41.918;22.414;2023-09-08T08:04:27;7.05;;;4.25;;
82640;SDS011;72322;41.918;22.414;2023-09-08T08:06:53;6.90;;;4.22;;
82640;SDS011;72322;41.918;22.414;2023-09-08T08:09:19;8.75;;;4.63;;
82640;SDS011;72322;41.918;22.414;2023-09-08T08:11:45;5.13;;;4.15;;
82640;SDS011;72322;41.918;22.414;2023-09-08T08:14:11;6.60;;;3.95;;
82640;SDS011;72322;41.918;22.414;2023-09-08T08:16:37;11.55;;;4.22;;
82640;SDS011;72322;41.918;22.414;2023-09-08T08:19:03;4.95;;;3.72;;
82640;SDS011;72322;41.918;22.414;2023-09-08T08:21:30;5.07;;;3.88;;
82640;SDS011;72322;41.918;22.414;2023-09-08T08:23:56;4.78;;;3.83;;
82640;SDS011;72322;41.918;22.414;2023-09-08T08:26:22;7.50;;;4.70;;
82640;SDS011;72322;41.918;22.414;2023-09-08T08:28:52;6.50;;;4.18;;
82640;SDS011;72322;41.918;22.414;2023-09-08T08:31:18;6.10;;;3.53;;
82640;SDS011;72322;41.918;22.414;2023-09-08T08:33:44;6.57;;;4.63;;
82640;SDS011;72322;41.918;22.414;2023-09-08T08:36:10;5.65;;;3.60;;
82640;SDS011;72322;41.918;22.414;2023-09-08T08:38:36;5.05;;;4.05;;
82640;SDS011;72322;41.918;22.414;2023-09-08T08:41:03;5.00;;;3.80;;
82640;SDS011;72322;41.918;22.414;2023-09-08T08:43:30;4.05;;;3.35;;
82640;SDS011;72322;41.918;22.414;2023-09-08T08:45:56;7.03;;;3.80;;
82640;SDS011;72322;41.918;22.414;2023-09-08T08:48:23;4.43;;;3.55;;
82640;SDS011;72322;41.918;22.414;2023-09-08T08:50:50;10.10;;;4.13;;
82640;SDS011;72322;41.918;22.414;2023-09-08T08:53:17;4.40;;;3.38;;
82640;SDS011;72322;41.918;22.414;2023-09-08T08:55:43;6.60;;;3.88;;
82640;SDS011;72322;41.918;22.414;2023-09-08T08:58:10;6.43;;;3.67;;
82640;SDS011;72322;41.918;22.414;2023-09-08T09:00:39;5.93;;;4.18;;
82640;SDS011;72322;41.918;22.414;2023-09-08T09:03:05;4.53;;;3.78;;
82640;SDS011;72322;41.918;22.414;2023-09-08T09:05:32;5.20;;;3.80;;
82640;SDS011;72322;41.918;22.414;2023-09-08T09:08:01;6.93;;;3.88;;
82640;SDS011;72322;41.918;22.414;2023-09-08T09:10:29;5.10;;;3.55;;
82640;SDS011;72322;41.918;22.414;2023-09-08T09:12:55;5.13;;;4.22;;
82640;SDS011;72322;41.918;22.414;2023-09-08T09:15:28;6.35;;;3.70;;
82640;SDS011;72322;41.918;22.414;2023-09-08T09:18:04;6.43;;;3.88;;
82640;SDS011;72322;41.918;22.414;2023-09-08T09:20:30;6.70;;;3.75;;
82640;SDS011;72322;41.918;22.414;2023-09-08T09:22:57;6.45;;;4.10;;
82640;SDS011;72322;41.918;22.414;2023-09-08T09:25:24;14.60;;;3.90;;
82640;SDS011;72322;41.918;22.414;2023-09-08T09:27:59;4.88;;;3.67;;
82640;SDS011;72322;41.918;22.414;2023-09-08T09:30:26;12.00;;;8.35;;
82640;SDS011;72322;41.918;22.414;2023-09-08T09:33:00;6.20;;;3.60;;
82640;SDS011;72322;41.918;22.414;2023-09-08T09:35:46;4.70;;;3.50;;
82640;SDS011;72322;41.918;22.414;2023-09-08T09:38:12;5.70;;;3.53;;
82640;SDS011;72322;41.918;22.414;2023-09-08T09:40:39;5.30;;;3.65;;
82640;SDS011;72322;41.918;22.414;2023-09-08T09:43:05;4.35;;;3.67;;
82640;SDS011;72322;41.918;22.414;2023-09-08T09:45:33;7.15;;;2.97;;
82640;SDS011;72322;41.918;22.414;2023-09-08T09:47:59;7.15;;;3.80;;
82640;SDS011;72322;41.918;22.414;2023-09-08T09:50:29;7.20;;;3.80;;
82640;SDS011;72322;41.918;22.414;2023-09-08T09:53:00;4.50;;;3.63;;
82640;SDS011;72322;41.918;22.414;2023-09-08T09:55:26;5.32;;;3.30;;
82640;SDS011;72322;41.918;22.414;2023-09-08T09:57:56;4.47;;;3.80;;
82640;SDS011;72322;41.918;22.414;2023-09-08T10:00:29;5.82;;;3.85;;
82640;SDS011;72322;41.918;22.414;2023-09-08T10:02:55;5.57;;;3.67;;
82640;SDS011;72322;41.918;22.414;2023-09-08T10:05:23;5.78;;;3.30;;
82640;SDS011;72322;41.918;22.414;2023-09-08T10:07:49;5.22;;;3.55;;
82640;SDS011;72322;41.918;22.414;2023-09-08T10:10:15;6.93;;;3.75;;
82640;SDS011;72322;41.918;22.414;2023-09-08T10:12:45;6.50;;;4.30;;
82640;SDS011;72322;41.918;22.414;2023-09-08T10:15:11;4.50;;;3.47;;
82640;SDS011;72322;41.918;22.414;2023-09-08T10:17:37;5.63;;;3.17;;
82640;SDS011;72322;41.918;22.414;2023-09-08T10:20:04;5.00;;;3.67;;
82640;SDS011;72322;41.918;22.414;2023-09-08T10:22:36;5.50;;;3.70;;
82640;SDS011;72322;41.918;22.414;2023-09-08T10:25:04;4.82;;;3.50;;
82640;SDS011;72322;41.918;22.414;2023-09-08T10:27:31;5.43;;;3.60;;
82640;SDS011;72322;41.918;22.414;2023-09-08T10:30:01;6.50;;;4.13;;
82640;SDS011;72322;41.918;22.414;2023-09-08T10:32:29;10.00;;;6.07;;
82640;SDS011;72322;41.918;22.414;2023-09-08T10:34:55;10.60;;;7.68;;
82640;SDS011;72322;41.918;22.414;2023-09-08T10:37:23;8.50;;;5.13;;
82640;SDS011;72322;41.918;22.414;2023-09-08T10:39:50;6.82;;;5.50;;
82640;SDS011;72322;41.918;22.414;2023-09-08T10:44:43;7.03;;;4.22;;
82640;SDS011;72322;41.918;22.414;2023-09-08T10:47:10;6.70;;;4.00;;
82640;SDS011;72322;41.918;22.414;2023-09-08T10:49:36;5.45;;;4.50;;
82640;SDS011;72322;41.918;22.414;2023-09-08T10:52:10;6.75;;;4.50;;
82640;SDS011;72322;41.918;22.414;2023-09-08T10:55:09;5.38;;;4.00;;
82640;SDS011;72322;41.918;22.414;2023-09-08T10:57:28;3.95;;;3.55;;
82640;SDS011;72322;41.918;22.414;2023-09-08T10:59:58;5.57;;;4.15;;
82640;SDS011;72322;41.918;22.414;2023-09-08T11:02:36;5.57;;;3.92;;
82640;SDS011;72322;41.918;22.414;2023-09-08T11:05:03;7.60;;;4.13;;
82640;SDS011;72322;41.918;22.414;2023-09-08T11:07:30;6.57;;;4.15;;
82640;SDS011;72322;41.918;22.414;2023-09-08T11:09:57;6.78;;;4.18;;
82640;SDS011;72322;41.918;22.414;2023-09-08T11:12:25;3.72;;;3.28;;
82640;SDS011;72322;41.918;22.414;2023-09-08T11:14:52;5.90;;;3.70;;
82640;SDS011;72322;41.918;22.414;2023-09-08T11:17:18;7.80;;;3.63;;
82640;SDS011;72322;41.918;22.414;2023-09-08T11:19:50;5.65;;;3.85;;
82640;SDS011;72322;41.918;22.414;2023-09-08T11:22:16;4.03;;;3.20;;
82640;SDS011;72322;41.918;22.414;2023-09-08T11:24:43;6.25;;;3.60;;
82640;SDS011;72322;41.918;22.414;2023-09-08T11:27:09;5.65;;;3.80;;
82640;SDS011;72322;41.918;22.414;2023-09-08T11:29:36;6.35;;;5.38;;
82640;SDS011;72322;41.918;22.414;2023-09-08T11:32:06;6.25;;;4.18;;
82640;SDS011;72322;41.918;22.414;2023-09-08T11:34:32;4.05;;;3.38;;
82640;SDS011;72322;41.918;22.414;2023-09-08T11:39:25;5.22;;;3.70;;
82640;SDS011;72322;41.918;22.414;2023-09-08T11:41:51;7.05;;;4.47;;
82640;SDS011;72322;41.918;22.414;2023-09-08T11:44:18;6.30;;;3.78;;
82640;SDS011;72322;41.918;22.414;2023-09-08T11:46:45;6.90;;;3.58;;
82640;SDS011;72322;41.918;22.414;2023-09-08T11:49:13;8.55;;;6.72;;
82640;SDS011;72322;41.918;22.414;2023-09-08T11:51:39;6.10;;;3.65;;
82640;SDS011;72322;41.918;22.414;2023-09-08T11:54:05;5.22;;;3.70;;
82640;SDS011;72322;41.918;22.414;2023-09-08T11:56:32;4.25;;;3.30;;
82640;SDS011;72322;41.918;22.414;2023-09-08T11:58:58;5.18;;;3.47;;
82640;SDS011;72322;41.918;22.414;2023-09-08T12:01:24;6.20;;;3.92;;
82640;SDS011;72322;41.918;22.414;2023-09-08T12:03:56;4.57;;;3.40;;
82640;SDS011;72322;41.918;22.414;2023-09-08T12:06:25;3.55;;;3.08;;
82640;SDS011;72322;41.918;22.414;2023-09-08T12:08:53;4.90;;;3.50;;
82640;SDS011;72322;41.918;22.414;2023-09-08T12:11:19;4.20;;;3.03;;
82640;SDS011;72322;41.918;22.414;2023-09-08T12:13:45;4.40;;;3.30;;
82640;SDS011;72322;41.918;22.414;2023-09-08T12:16:21;5.43;;;3.03;;
82640;SDS011;72322;41.918;22.414;2023-09-08T12:18:48;4.32;;;3.10;;
82640;SDS011;72322;41.918;22.414;2023-09-08T12:21:15;3.83;;;3.53;;
82640;SDS011;72322;41.918;22.414;2023-09-08T12:23:47;3.58;;;3.10;;
82640;SDS011;72322;41.918;22.414;2023-09-08T12:26:14;5.35;;;3.22;;
82640;SDS011;72322;41.918;22.414;2023-09-08T12:28:41;4.38;;;3.38;;
82640;SDS011;72322;41.918;22.414;2023-09-08T12:31:08;6.75;;;3.08;;
82640;SDS011;72322;41.918;22.414;2023-09-08T12:36:09;6.40;;;3.67;;
82640;SDS011;72322;41.918;22.414;2023-09-08T12:38:36;3.83;;;3.10;;
82640;SDS011;72322;41.918;22.414;2023-09-08T12:41:02;4.63;;;2.78;;
82640;SDS011;72322;41.918;22.414;2023-09-08T12:43:28;3.95;;;3.15;;
82640;SDS011;72322;41.918;22.414;2023-09-08T12:45:55;5.93;;;3.05;;
82640;SDS011;72322;41.918;22.414;2023-09-08T12:48:21;4.25;;;3.03;;
82640;SDS011;72322;41.918;22.414;2023-09-08T12:50:47;4.80;;;3.65;;
82640;SDS011;72322;41.918;22.414;2023-09-08T12:53:14;3.95;;;3.10;;
82640;SDS011;72322;41.918;22.414;2023-09-08T12:55:40;5.65;;;4.82;;
82640;SDS011;72322;41.918;22.414;2023-09-08T12:58:06;6.28;;;3.97;;
82640;SDS011;72322;41.918;22.414;2023-09-08T13:00:33;4.18;;;3.65;;
82640;SDS011;72322;41.918;22.414;2023-09-08T13:02:59;6.03;;;4.05;;
82640;SDS011;72322;41.918;22.414;2023-09-08T13:05:27;6.22;;;3.85;;
82640;SDS011;72322;41.918;22.414;2023-09-08T13:07:53;4.18;;;2.88;;
82640;SDS011;72322;41.918;22.414;2023-09-08T13:10:19;7.38;;;3.35;;
82640;SDS011;72322;41.918;22.414;2023-09-08T13:12:45;6.28;;;3.22;;
82640;SDS011;72322;41.918;22.414;2023-09-08T13:15:13;5.95;;;3.40;;
82640;SDS011;72322;41.918;22.414;2023-09-08T13:17:39;5.75;;;3.70;;
82640;SDS011;72322;41.918;22.414;2023-09-08T13:20:07;8.55;;;3.97;;
82640;SDS011;72322;41.918;22.414;2023-09-08T13:22:33;5.30;;;3.70;;
82640;SDS011;72322;41.918;22.414;2023-09-08T13:24:59;6.72;;;3.50;;
82640;SDS011;72322;41.918;22.414;2023-09-08T13:27:25;5.63;;;3.35;;
82640;SDS011;72322;41.918;22.414;2023-09-08T13:29:54;4.63;;;3.33;;
82640;SDS011;72322;41.918;22.414;2023-09-08T13:32:33;6.75;;;3.55;;
82640;SDS011;72322;41.918;22.414;2023-09-08T13:34:59;5.97;;;3.75;;
82640;SDS011;72322;41.918;22.414;2023-09-08T13:37:25;10.35;;;3.53;;
82640;SDS011;72322;41.918;22.414;2023-09-08T13:39:51;4.32;;;3.40;;
82640;SDS011;72322;41.918;22.414;2023-09-08T13:42:17;6.88;;;3.28;;
82640;SDS011;72322;41.918;22.414;2023-09-08T13:44:43;12.15;;;4.97;;
82640;SDS011;72322;41.918;22.414;2023-09-08T13:47:10;7.40;;;3.55;;
82640;SDS011;72322;41.918;22.414;2023-09-08T13:49:36;5.03;;;2.92;;
82640;SDS011;72322;41.918;22.414;2023-09-08T13:52:02;4.40;;;3.17;;
82640;SDS011;72322;41.918;22.414;2023-09-08T13:54:28;5.90;;;3.10;;
82640;SDS011;72322;41.918;22.414;2023-09-08T13:57:02;4.70;;;3.40;;
82640;SDS011;72322;41.918;22.414;2023-09-08T13:59:28;6.45;;;3.50;;
82640;SDS011;72322;41.918;22.414;2023-09-08T14:01:55;5.85;;;3.97;;
82640;SDS011;72322;41.918;22.414;2023-09-08T14:04:22;6.10;;;3.60;;
82640;SDS011;72322;41.918;22.414;2023-09-08T14:06:49;7.10;;;3.47;;
82640;SDS011;72322;41.918;22.414;2023-09-08T14:09:15;9.02;;;3.92;;
82640;SDS011;72322;41.918;22.414;2023-09-08T14:11:41;6.03;;;3.45;;
82640;SDS011;72322;41.918;22.414;2023-09-08T14:14:07;6.53;;;3.45;;
82640;SDS011;72322;41.918;22.414;2023-09-08T14:16:33;7.35;;;3.45;;
82640;SDS011;72322;41.918;22.414;2023-09-08T14:19:00;9.52;;;4.00;;
82640;SDS011;72322;41.918;22.414;2023-09-08T14:21:26;4.50;;;3.28;;
82640;SDS011;72322;41.918;22.414;2023-09-08T14:23:52;7.38;;;4.93;;
82640;SDS011;72322;41.918;22.414;2023-09-08T14:26:18;6.30;;;5.45;;
82640;SDS011;72322;41.918;22.414;2023-09-08T14:31:11;5.82;;;4.03;;
82640;SDS011;72322;41.918;22.414;2023-09-08T14:33:37;4.90;;;4.18;;
82640;SDS011;72322;41.918;22.414;2023-09-08T14:36:03;4.97;;;3.17;;
82640;SDS011;72322;41.918;22.414;2023-09-08T14:38:30;5.40;;;3.15;;
82640;SDS011;72322;41.918;22.414;2023-09-08T14:40:59;4.90;;;3.30;;
82640;SDS011;72322;41.918;22.414;2023-09-08T14:43:26;5.28;;;3.25;;
82640;SDS011;72322;41.918;22.414;2023-09-08T14:45:53;6.95;;;3.70;;